Latest Weather Observations for Wulungurru (Kintore)

IDD60801

Issued at 5:05 pm CST Friday 25 April 2014 (issued every 30 minutes, with the page automatically refreshed every 10 minutes)

About weather observations | Map of weather stations | Latest weather observations for NT | Other Formats
Station Details ID: 015664 Name: WALUNGURRU AIRPORT Lat: -23.27 Lon: 129.38 Height: 454.3 m
Data from the previous 72 hours. | See also: Recent months at Wulungurru (Kintore)
Date/Time
CST
Temp
°C
App
Temp
°C
Dew
Point
Rel
Hum
%
Delta-T
°C
Wind Press
QNH
hPa
Press
MSL
hPa
Rain
since 9 am
mm
Dir
 
Spd
km/h
Gust
km/h
Spd
kts
Gust
kts
25/05:00pm 32.2 29.0 3.2 16 15.1 ESE 9 13 5 7 1012.5 - 0.0
25/04:30pm 32.5 29.6 2.5 15 15.5 ENE 7 11 4 6 1012.2 - 0.0
25/04:00pm 32.6 29.3 2.6 15 15.5 NNE 9 19 5 10 1012.3 - 0.0
25/03:30pm 32.9 30.1 2.9 15 15.6 WNW 7 13 4 7 1012.5 - 0.0
25/03:00pm 33.2 30.0 3.1 15 15.8 NNE 9 17 5 9 1012.8 1010.8 0.0
25/02:30pm 32.2 28.3 3.2 16 15.1 NE 13 20 7 11 1013.0 - 0.0
25/02:00pm 32.2 28.6 3.2 16 15.1 ENE 11 20 6 11 1013.4 - 0.0
25/01:30pm 31.5 27.9 2.7 16 14.8 N 11 19 6 10 1014.0 - 0.0
25/01:00pm 31.4 27.1 3.4 17 14.6 NNE 15 22 8 12 1014.6 - 0.0
25/12:30pm 31.1 26.6 4.0 18 14.2 NNE 17 22 9 12 1015.1 - 0.0
25/12:00pm 30.3 25.5 4.9 20 13.5 NE 19 24 10 13 1015.5 1013.6 0.0
25/11:30am 29.6 24.3 5.0 21 13.0 NE 22 30 12 16 1016.2 - 0.0
25/11:00am 29.0 24.2 5.8 23 12.4 NE 20 28 11 15 1016.8 - 0.0
25/10:30am 27.7 21.7 5.3 24 11.8 NE 26 33 14 18 1016.7 - 0.0
25/10:00am 26.4 20.4 5.4 26 11.0 ENE 26 33 14 18 1016.8 - 0.0
25/09:30am 24.4 18.5 5.7 30 9.7 ENE 26 33 14 18 1016.8 - 0.0
25/09:00am 23.5 17.6 5.9 32 9.1 ENE 26 33 14 18 1016.6 1014.6 0.0
25/08:30am 22.5 16.5 5.4 33 8.7 ENE 26 33 14 18 1016.3 - 0.0
25/08:00am 21.6 15.5 4.7 33 8.5 ENE 26 35 14 19 1015.9 - 0.0
25/07:30am 21.5 15.3 4.1 32 8.6 ENE 26 33 14 18 1015.5 - 0.0
25/07:00am 22.1 15.4 3.7 30 9.1 E 28 39 15 21 1015.0 - 0.0
25/06:30am 22.6 16.2 3.2 28 9.5 E 26 35 14 19 1014.8 - 0.0
25/06:00am 22.6 17.0 3.2 28 9.5 E 22 28 12 15 1014.6 1012.6 0.0
25/05:00am 23.3 18.0 1.6 24 10.4 E 19 24 10 13 1014.3 - 0.0
25/04:30am 23.9 18.3 1.5 23 10.8 E 20 28 11 15 1014.0 - 0.0
25/04:00am 24.3 17.9 1.2 22 11.1 E 24 32 13 17 1013.9 - 0.0
25/03:30am 24.6 20.3 0.8 21 11.3 E 13 19 7 10 1013.7 - 0.0
25/03:00am 25.2 19.6 1.3 21 11.5 ESE 20 26 11 14 1013.8 1011.9 0.0
25/02:30am 25.1 20.0 3.1 24 11.0 ESE 19 24 10 13 1014.0 - 0.0
25/02:00am 25.3 19.8 3.9 25 10.8 ESE 22 32 12 17 1014.3 - 0.0
25/01:30am 25.7 20.5 3.6 24 11.2 ESE 20 26 11 14 1014.6 - 0.0
25/01:00am 25.7 20.5 3.6 24 11.2 ESE 20 28 11 15 1014.7 - 0.0
25/12:30am 25.5 20.6 4.0 25 10.9 ESE 19 26 10 14 1015.0 - 0.0
25/12:00am 25.3 20.2 3.9 25 10.8 SE 20 26 11 14 1014.9 1012.9 0.0
 
Date/Time
CST
Temp
°C
App
Temp
°C
Dew
Point
Rel
Hum
%
Delta-T
°C
Wind Press
QNH
hPa
Press
MSL
hPa
Rain
since 9 am
mm
Dir
 
Spd
km/h
Gust
km/h
Spd
kts
Gust
kts
24/11:30pm 26.1 21.0 4.0 24 11.3 SE 20 28 11 15 1015.2 - 0.0
24/11:00pm 25.5 21.1 4.6 26 10.7 SE 17 20 9 11 1015.4 - 0.0
24/10:30pm 26.4 21.9 4.2 24 11.4 SE 17 20 9 11 1015.6 - 0.0
24/10:00pm 27.6 22.1 4.0 22 12.2 ESE 22 28 12 15 1015.7 - 0.0
24/09:30pm 27.2 22.3 4.3 23 11.8 ESE 19 26 10 14 1015.6 - 0.0
24/09:00pm 27.5 22.6 3.9 22 12.1 ESE 19 26 10 14 1015.6 1013.7 0.0
24/08:30pm 27.5 22.4 3.9 22 12.1 SE 20 30 11 16 1015.3 - 0.0
24/08:00pm 27.9 22.3 3.6 21 12.4 SE 22 30 12 16 1014.9 - 0.0
24/07:30pm 27.4 23.0 4.5 23 11.9 SSE 17 24 9 13 1014.6 - 0.0
24/07:00pm 28.5 23.6 4.1 21 12.7 SE 19 28 10 15 1014.0 - 0.0
24/06:30pm 28.7 24.6 4.2 21 12.7 SE 15 20 8 11 1013.7 - 0.0
24/06:00pm 29.5 25.4 4.2 20 13.2 SSE 15 22 8 12 1013.4 1011.4 0.0
24/05:30pm 30.8 25.3 3.8 18 14.1 SSE 22 30 12 16 1013.1 - 0.0
24/05:00pm 31.4 25.9 4.2 18 14.4 SSE 22 30 12 16 1013.0 - 0.0
24/04:30pm 32.0 27.0 4.7 18 14.6 SSE 20 28 11 15 1013.0 - 0.0
24/04:00pm 31.4 25.9 4.2 18 14.4 E 22 33 12 18 1013.0 - 0.0
24/03:30pm 31.9 27.1 4.6 18 14.6 SE 19 28 10 15 1013.1 - 0.0
24/03:00pm 32.2 27.8 4.9 18 14.7 SE 17 28 9 15 1013.2 1011.2 0.0
24/02:30pm 32.4 28.4 5.0 18 14.7 ESE 15 26 8 14 1013.2 - 0.0
24/02:00pm 32.6 27.9 5.2 18 14.8 E 19 37 10 20 1013.4 - 0.0
24/01:30pm 31.9 26.9 4.6 18 14.6 ESE 20 32 11 17 1014.0 - 0.0
24/01:00pm 31.4 26.8 5.8 20 13.9 E 19 28 10 15 1014.7 - 0.0
24/12:30pm 31.6 26.9 5.2 19 14.2 E 19 28 10 15 1015.2 - 0.0
24/12:00pm 30.9 26.1 4.6 19 13.9 ENE 19 26 10 14 1015.8 1013.9 0.0
24/11:30am 30.4 26.4 4.9 20 13.6 ENE 15 22 8 12 1016.2 - 0.0
24/11:00am 29.9 26.0 5.2 21 13.2 ENE 15 33 8 18 1016.6 - 0.0
24/10:30am 29.3 24.2 4.0 20 13.2 ENE 20 28 11 15 1016.8 - 0.0
24/10:00am 28.4 22.8 5.3 23 12.2 ESE 24 32 13 17 1016.8 - 0.0
24/09:30am 27.2 21.1 4.9 24 11.6 ESE 26 33 14 18 1016.7 - 0.0
24/09:00am 26.4 22.2 5.9 27 10.8 SE 17 28 9 15 1016.7 1014.7 0.0
24/08:30am 25.0 19.4 5.2 28 10.2 ESE 24 33 13 18 1016.3 - 0.0
24/08:00am 24.4 18.7 4.7 28 10.1 ESE 24 30 13 16 1016.1 - 0.0
24/07:30am 24.0 18.3 4.9 29 9.8 ESE 24 32 13 17 1015.9 - 0.0
24/07:00am 23.8 18.4 4.7 29 9.7 ESE 22 28 12 15 1015.7 - 0.0
24/06:30am 23.4 18.4 4.4 29 9.6 ESE 20 28 11 15 1015.6 - 0.0
24/06:00am 23.8 18.0 4.2 28 9.9 ESE 24 33 13 18 1015.5 1013.6 0.0
24/05:30am 23.8 19.0 4.7 29 9.7 ESE 19 28 10 15 1015.4 - 0.0
24/05:00am 19.8 17.1 5.5 39 7.2 SSE 9 17 5 9 1015.4 - 0.0
24/04:30am 24.4 19.3 4.2 27 10.2 ESE 20 30 11 16 1015.2 - 0.0
24/04:00am 25.0 19.2 4.2 26 10.6 ESE 24 33 13 18 1015.2 - 0.0
24/03:30am 22.4 18.6 5.8 34 8.5 SSE 15 22 8 12 1015.4 - 0.0
24/03:00am 22.8 18.5 5.3 32 8.9 SSE 17 22 9 12 1015.4 1013.4 0.0
24/02:30am 22.9 18.6 5.3 32 9.0 SSE 17 20 9 11 1015.6 - 0.0
24/02:00am 21.4 16.8 5.7 36 8.0 SSE 19 22 10 12 1015.8 - 0.0
24/01:30am 22.0 17.8 5.8 35 8.3 S 17 20 9 11 1016.0 - 0.0
24/01:00am 21.9 18.1 5.8 35 8.3 SSE 15 17 8 9 1016.0 - 0.0
24/12:30am 22.5 18.7 5.9 34 8.6 SSE 15 19 8 10 1016.2 - 0.0
24/12:00am 22.3 18.6 6.1 35 8.4 S 15 17 8 9 1016.3 1014.4 0.0
 
Date/Time
CST
Temp
°C
App
Temp
°C
Dew
Point
Rel
Hum
%
Delta-T
°C
Wind Press
QNH
hPa
Press
MSL
hPa
Rain
since 9 am
mm
Dir
 
Spd
km/h
Gust
km/h
Spd
kts
Gust
kts
23/11:30pm 22.0 17.9 6.3 36 8.1 S 17 19 9 10 1016.3 - 0.0
23/11:00pm 22.6 18.5 6.0 34 8.6 S 17 19 9 10 1016.5 - 0.0
23/10:30pm 22.8 19.0 5.7 33 8.8 S 15 17 8 9 1016.5 - 0.0
23/10:00pm 22.6 18.7 5.5 33 8.8 SSE 15 20 8 11 1016.6 - 0.0
23/09:30pm 23.6 19.4 5.5 31 9.3 S 17 19 9 10 1016.5 - 0.0
23/09:00pm 25.0 20.7 5.2 28 10.2 SSE 17 22 9 12 1016.3 1014.4 0.0
23/08:30pm 24.7 20.8 5.5 29 10.0 SSE 15 19 8 10 1015.9 - 0.0
23/08:00pm 24.1 20.6 5.5 30 9.6 S 13 17 7 9 1015.6 - 0.0
23/07:30pm 24.9 21.3 5.2 28 10.2 S 13 15 7 8 1015.3 - 0.0
23/07:00pm 25.5 22.3 5.1 27 10.6 SSE 11 13 6 7 1014.9 - 0.0
23/06:30pm 27.5 24.6 4.5 23 11.9 S 9 11 5 6 1014.5 - 0.0
23/06:00pm 30.0 26.3 2.3 17 14.1 SSE 11 15 6 8 1014.2 1012.2 0.0
23/05:30pm 31.2 27.3 3.3 17 14.5 SSE 13 20 7 11 1013.9 - 0.0
23/05:00pm 31.5 27.3 1.8 15 15.1 SSE 13 28 7 15 1013.7 - 0.0
23/04:30pm 31.8 27.5 1.0 14 15.5 S 13 22 7 12 1013.8 - 0.0
23/04:00pm 32.2 28.1 2.3 15 15.4 ESE 13 22 7 12 1013.8 - 0.0
23/03:30pm 32.5 30.2 2.5 15 15.5 SW 4 11 2 6 1014.0 - 0.0
23/03:00pm 32.0 27.9 2.1 15 15.3 SSE 13 19 7 10 1014.4 1012.4 0.0
23/02:30pm 32.3 27.8 2.4 15 15.4 ESE 15 20 8 11 1014.6 - 0.0
23/02:00pm 31.9 26.6 2.1 15 15.2 S 19 22 10 12 1015.1 - 0.0
23/01:30pm 32.0 28.6 2.1 15 15.3 S 9 17 5 9 1015.5 - 0.0
23/01:00pm 31.5 28.1 1.8 15 15.1 S 9 15 5 8 1016.0 - 0.0
23/12:30pm 31.7 28.7 1.9 15 15.2 SE 7 13 4 7 1016.6 - 0.0
23/12:00pm 31.4 28.0 1.7 15 15.0 ENE 9 15 5 8 1017.0 1015.0 0.0
23/11:30am 30.7 27.7 2.0 16 14.6 ENE 7 13 4 7 1017.3 - 0.0
23/11:00am 29.5 26.0 5.6 22 12.8 S 13 15 7 8 1017.6 - 0.0
23/10:30am 28.7 25.6 7.3 26 11.7 SSE 13 17 7 9 1017.8 - 0.0
23/10:00am 26.5 22.8 8.0 31 10.1 SSE 17 20 9 11 1017.9 - 0.0
23/09:30am 24.0 19.2 7.2 34 9.0 SSE 22 28 12 15 1017.9 - 0.0
23/09:00am 22.8 17.5 6.6 35 8.5 SSE 24 32 13 17 1017.7 1015.8 0.0
23/08:30am 21.7 17.2 6.8 38 7.8 S 20 28 11 15 1017.6 - 0.0
23/08:00am 20.3 16.2 6.3 40 7.2 S 17 22 9 12 1017.3 - 0.0
23/07:30am 21.5 16.8 5.0 34 8.3 SE 19 26 10 14 1016.9 - 0.0
23/07:00am 21.4 16.5 4.9 34 8.3 SE 20 30 11 16 1016.7 - 0.0
23/06:30am 21.8 16.8 4.8 33 8.6 SE 20 28 11 15 1016.6 - 0.0
23/06:00am 20.3 15.4 3.9 34 8.0 SSE 19 24 10 13 1016.3 1014.4 0.0
23/05:30am 19.2 15.0 3.8 36 7.5 SSE 15 19 8 10 1016.2 - 0.0
23/05:00am 19.5 14.5 3.6 35 7.7 S 19 22 10 12 1016.2 - 0.0
23/04:30am 19.4 15.5 3.6 35 7.6 S 13 17 7 9 1016.1 - 0.0
23/04:00am 21.8 16.5 3.0 29 9.1 SSE 20 26 11 14 1016.0 - 0.0
23/03:30am 21.3 16.0 3.0 30 8.9 SSE 20 28 11 15 1016.1 - 0.0
23/03:00am 21.3 18.2 3.5 31 8.7 ESE 9 15 5 8 1016.2 1014.3 0.0
23/02:30am 21.5 18.8 3.7 31 8.8 ENE 7 9 4 5 1016.3 - 0.0
23/02:00am 21.4 18.0 4.0 32 8.6 E 11 17 6 9 1016.5 - 0.0
23/01:30am 20.9 17.2 4.5 34 8.2 ENE 13 19 7 10 1016.7 - 0.0
23/01:00am 21.5 16.9 3.7 31 8.8 S 17 19 9 10 1016.5 - 0.0
23/12:30am 21.7 17.1 3.9 31 8.8 S 17 19 9 10 1016.9 - 0.0
23/12:00am 22.2 17.6 3.8 30 9.1 SSE 17 24 9 13 1017.1 1015.1 0.0
 
Date/Time
CST
Temp
°C
App
Temp
°C
Dew
Point
Rel
Hum
%
Delta-T
°C
Wind Press
QNH
hPa
Press
MSL
hPa
Rain
since 9 am
mm
Dir
 
Spd
km/h
Gust
km/h
Spd
kts
Gust
kts
22/11:30pm 21.8 17.7 4.4 32 8.7 SSE 15 17 8 9 1017.2 - 0.0
22/11:00pm 21.6 17.6 4.7 33 8.5 SSE 15 19 8 10 1017.2 - 0.0
22/10:30pm 21.9 17.5 4.9 33 8.6 SSE 17 20 9 11 1017.3 - 0.0
22/10:00pm 21.8 18.2 4.8 33 8.6 S 13 15 7 8 1017.3 - 0.0
22/09:30pm 22.3 18.3 4.8 32 8.8 S 15 17 8 9 1017.2 - 0.0
22/09:00pm 22.7 18.7 4.7 31 9.1 S 15 17 8 9 1017.1 1015.1 0.0
22/08:30pm 22.8 19.2 4.8 31 9.1 S 13 15 7 8 1016.8 - 0.0
22/08:00pm 23.9 20.2 4.3 28 9.9 SSE 13 15 7 8 1016.3 - 0.0
22/07:30pm 25.6 21.7 3.5 24 11.1 SSE 13 17 7 9 1015.9 - 0.0
22/07:00pm 27.2 23.1 2.3 20 12.4 ESE 13 20 7 11 1015.7 - 0.0
22/06:30pm 27.8 24.2 2.8 20 12.6 ESE 11 13 6 7 1015.2 - 0.0
22/06:00pm 29.6 24.9 1.1 16 14.1 ESE 15 22 8 12 1015.1 1013.1 0.0
22/05:30pm 30.6 25.0 0.1 14 15.0 SE 19 28 10 15 1014.8 - 0.0

Other Formats:

Comma delimited format used in spreadsheet applications
http://www.bom.gov.au/fwo/IDD60801/IDD60801.94321.axf

JavaScript Object Notation format (JSON) in row-major order
http://www.bom.gov.au/fwo/IDD60801/IDD60801.94321.json